Champion, Canada
Current Conditions -  °F | °C
As of 11:00 AM on Saturday 20 Dec 2014 (Local Time) from CYQL Reporting Station
Broken Clouds Broken Clouds  
Wind Chill: 24°   Ceiling: 23000
Heat Index: 34°   Visibility: 40mi
Dew Point: 25°   Wind: 14mph
Humidity: 70%   Direction: 240°WSW
Pressure: 29.76"   Gusts: NA
Location:  50.22°N, 113.15°W
Report Text: CYQL 201800Z 24012KT 40SM FEW120 BKN230 01/M04 A2976 RMK AC1CI5 AC TR SLP108
Loading
Personal Weather Stations






























Interactive Weather Map New forecast layout! Learn more

10-Day Weather Forecast

Advertisements
Track Severe Weather on mobile